Time;durP1;ratioP1;P1;durP2;ratioP2;P2;SDS_P1;SDS_P2;PMS_P1;PMS_P2;Temp;Humidity;BMP_temperature;BMP_pressure;BME280_temperature;BME280_humidity;BME280_pressure;Samples;Min_cycle;Max_cycle;Signal;HPM_P1;HPM_P2
2022/08/02 00:00:53;;;;;;;6.38;2.47;;;14.40;83.00;;;;;;4984141;28;20089;-69
2022/08/02 00:03:19;;;;;;;12.20;2.88;;;14.40;83.00;;;;;;4983557;28;20035;-69
2022/08/02 00:05:46;;;;;;;9.60;2.65;;;14.40;82.90;;;;;;4984629;28;20014;-71
2022/08/02 00:08:12;;;;;;;8.60;3.20;;;14.40;83.20;;;;;;4985187;28;20494;-72
2022/08/02 00:10:39;;;;;;;7.63;2.63;;;14.40;83.20;;;;;;4986619;28;20048;-69
2022/08/02 00:13:05;;;;;;;8.13;3.10;;;14.40;83.10;;;;;;4986417;28;20034;-68
2022/08/02 00:15:32;;;;;;;11.63;4.13;;;14.30;82.90;;;;;;4987819;28;20018;-68
2022/08/02 00:17:58;;;;;;;7.00;2.58;;;14.30;82.90;;;;;;4981858;28;20053;-68
2022/08/02 00:20:25;;;;;;;12.52;3.15;;;14.30;82.90;;;;;;4988567;28;20113;-70
2022/08/02 00:22:51;;;;;;;13.70;2.67;;;14.30;83.00;;;;;;4984793;28;20062;-69
2022/08/02 00:25:18;;;;;;;4.53;2.40;;;14.30;83.00;;;;;;4986017;28;20485;-69
2022/08/02 00:27:44;;;;;;;8.73;2.97;;;14.30;83.10;;;;;;4984968;28;20105;-70
2022/08/02 00:30:11;;;;;;;8.18;3.13;;;14.30;83.20;;;;;;4988272;28;20022;-67
2022/08/02 00:32:38;;;;;;;12.60;3.70;;;14.30;83.30;;;;;;4987199;28;20136;-68
2022/08/02 00:35:05;;;;;;;8.63;2.72;;;14.20;83.30;;;;;;4989595;28;20030;-70
2022/08/02 00:37:31;;;;;;;8.38;3.63;;;14.20;83.40;;;;;;4985052;28;20027;-68
2022/08/02 00:39:58;;;;;;;9.07;3.13;;;14.30;83.60;;;;;;4983829;28;20022;-67
2022/08/02 00:42:25;;;;;;;4.28;2.15;;;14.20;83.60;;;;;;4981487;28;20406;-67
2022/08/02 00:44:51;;;;;;;6.43;3.15;;;14.20;83.70;;;;;;4984206;28;20058;-68
2022/08/02 00:47:18;;;;;;;10.75;2.72;;;14.20;83.60;;;;;;4986141;28;20049;-69
2022/08/02 00:49:44;;;;;;;6.78;3.60;;;14.20;83.80;;;;;;4986290;28;20022;-68
2022/08/02 00:52:11;;;;;;;6.88;3.08;;;14.20;84.00;;;;;;4987312;28;20021;-69
2022/08/02 00:54:37;;;;;;;12.23;4.40;;;14.20;84.30;;;;;;4983690;28;20026;-68
2022/08/02 00:57:04;;;;;;;11.38;3.88;;;14.20;84.40;;;;;;4984354;28;20023;-68
2022/08/02 00:59:31;;;;;;;12.50;4.60;;;14.20;84.40;;;;;;4986135;28;20031;-69
2022/08/02 01:01:57;;;;;;;8.80;3.05;;;14.20;84.60;;;;;;4983024;28;20026;-69
2022/08/02 01:04:26;;;;;;;8.85;3.83;;;14.20;84.60;;;;;;4987030;28;20065;-68
2022/08/02 01:06:52;;;;;;;10.60;4.60;;;14.20;84.60;;;;;;4986379;28;20038;-72
2022/08/02 01:09:19;;;;;;;12.35;3.53;;;14.20;84.60;;;;;;4982821;28;20029;-69
2022/08/02 01:11:45;;;;;;;7.10;3.17;;;14.20;84.60;;;;;;4986526;28;20123;-68
2022/08/02 01:14:14;;;;;;;18.23;3.33;;;14.20;84.80;;;;;;4984684;28;20026;-70
2022/08/02 01:16:49;;;;;;;18.17;3.83;;;14.20;85.00;;;;;;4984888;28;20037;-72
2022/08/02 01:19:27;;;;;;;;;;;14.10;85.00;;;;;;4982929;28;20046;-68
2022/08/02 01:22:15;;;;;;;8.18;3.65;;;14.10;85.00;;;;;;4984042;28;20580;-72
2022/08/02 01:25:00;;;;;;;8.77;2.83;;;14.10;84.90;;;;;;4985654;28;20034;-67
2022/08/02 01:27:36;;;;;;;9.05;3.95;;;14.00;84.70;;;;;;4984897;28;20030;-68
2022/08/02 01:30:06;;;;;;;9.40;2.90;;;14.10;84.70;;;;;;4985719;28;20032;-70
2022/08/02 01:32:39;;;;;;;11.27;3.22;;;14.00;84.70;;;;;;4985291;28;20035;-69
2022/08/02 01:35:12;;;;;;;11.70;4.07;;;14.10;84.70;;;;;;4985329;28;20035;-67
2022/08/02 01:37:42;;;;;;;18.80;4.82;;;14.00;84.50;;;;;;4982782;28;20500;-68
2022/08/02 01:40:22;;;;;;;12.40;4.43;;;14.00;84.40;;;;;;4982392;28;20405;-69
2022/08/02 01:42:51;;;;;;;10.52;4.53;;;14.00;84.70;;;;;;5001870;28;20045;-69
2022/08/02 01:45:20;;;;;;;9.48;4.55;;;14.00;84.50;;;;;;4985421;28;20030;-69
2022/08/02 01:47:48;;;;;;;6.15;3.05;;;14.00;84.40;;;;;;4982116;28;20026;-71
2022/08/02 01:50:17;;;;;;;9.45;3.28;;;14.00;84.40;;;;;;4986892;28;20493;-68
2022/08/02 01:52:47;;;;;;;10.15;3.85;;;14.00;84.30;;;;;;4986418;28;20388;-70
2022/08/02 01:55:20;;;;;;;16.02;4.32;;;14.00;84.20;;;;;;4984336;28;20034;-69
2022/08/02 01:57:54;;;;;;;11.30;3.58;;;14.00;84.00;;;;;;4983391;28;20496;-68
2022/08/02 02:00:24;;;;;;;5.07;3.10;;;13.90;83.70;;;;;;4979628;28;20033;-68
2022/08/02 02:02:59;;;;;;;7.75;3.63;;;13.90;83.40;;;;;;4978333;28;20393;-69
2022/08/02 02:05:29;;;;;;;10.65;4.60;;;13.90;83.20;;;;;;4980256;28;20027;-74
2022/08/02 02:07:58;;;;;;;8.45;3.75;;;13.90;82.90;;;;;;4981037;28;20190;-70
2022/08/02 02:10:30;;;;;;;11.93;3.85;;;13.90;82.70;;;;;;4986583;28;20049;-71
2022/08/02 02:13:03;;;;;;;10.48;3.55;;;13.90;82.40;;;;;;4981646;28;20030;-71
2022/08/02 02:15:34;;;;;;;8.55;4.22;;;13.80;81.90;;;;;;4983352;28;20676;-71
2022/08/02 02:18:02;;;;;;;7.22;3.90;;;13.80;81.70;;;;;;4981517;28;20031;-69
2022/08/02 02:20:29;;;;;;;11.77;4.50;;;13.70;81.60;;;;;;4986749;28;20025;-72
2022/08/02 02:22:57;;;;;;;16.33;4.20;;;13.70;81.80;;;;;;4981350;28;20045;-68
2022/08/02 02:25:24;;;;;;;14.20;4.03;;;13.70;82.10;;;;;;4985583;28;20019;-72
2022/08/02 02:28:16;;;;;;;10.88;3.85;;;13.70;82.50;;;;;;4983593;28;20026;-71
2022/08/02 02:30:47;;;;;;;7.47;3.25;;;13.70;82.70;;;;;;4975214;28;20038;-70
2022/08/02 02:33:17;;;;;;;17.50;4.20;;;13.80;83.10;;;;;;4982244;28;20042;-72
2022/08/02 02:35:46;;;;;;;8.57;4.30;;;13.70;83.40;;;;;;4987411;28;20370;-72
2022/08/02 02:38:15;;;;;;;10.80;4.88;;;13.70;83.30;;;;;;4989174;28;20373;-71
2022/08/02 02:40:44;;;;;;;8.95;4.18;;;13.80;83.50;;;;;;4984662;28;20035;-68
2022/08/02 02:43:12;;;;;;;9.30;3.70;;;13.70;83.40;;;;;;4985708;28;20053;-69
2022/08/02 02:45:41;;;;;;;10.98;3.75;;;13.80;83.50;;;;;;4987018;28;20037;-71
2022/08/02 02:48:10;;;;;;;10.98;4.60;;;13.70;83.50;;;;;;4984331;28;20485;-69
2022/08/02 02:50:37;;;;;;;10.10;3.30;;;13.70;83.60;;;;;;4986223;28;20014;-70
2022/08/02 02:53:05;;;;;;;8.57;3.25;;;13.80;83.90;;;;;;4986777;28;20445;-69
2022/08/02 02:55:32;;;;;;;9.60;3.67;;;13.80;84.00;;;;;;4986237;28;20014;-71
2022/08/02 02:57:59;;;;;;;6.10;2.85;;;13.80;84.00;;;;;;4986969;28;20031;-72
2022/08/02 03:03:12;;;;;;;7.53;3.08;;;13.80;84.30;;;;;;4987010;28;20532;-71
2022/08/02 03:05:38;;;;;;;9.25;4.32;;;13.80;84.30;;;;;;4986209;28;20030;-68
2022/08/02 03:08:05;;;;;;;12.52;3.67;;;13.80;84.40;;;;;;4983869;28;20014;-68
2022/08/02 03:10:32;;;;;;;17.50;3.90;;;13.80;84.60;;;;;;4987167;28;20022;-70
2022/08/02 03:12:59;;;;;;;14.07;4.13;;;13.80;84.90;;;;;;4987194;28;20113;-71
2022/08/02 03:15:29;;;;;;;14.93;3.78;;;13.80;85.40;;;;;;4989141;28;20022;-72
2022/08/02 03:17:56;;;;;;;11.60;3.80;;;13.80;85.60;;;;;;4985773;28;20018;-69
2022/08/02 03:20:22;;;;;;;12.35;4.60;;;13.80;85.80;;;;;;4981907;28;20127;-69
2022/08/02 03:22:49;;;;;;;9.93;3.78;;;13.80;85.30;;;;;;4989571;28;20089;-71
2022/08/02 03:25:17;;;;;;;11.80;4.20;;;13.80;85.00;;;;;;4986205;28;20031;-68
2022/08/02 03:27:44;;;;;;;18.05;3.30;;;13.80;84.60;;;;;;4984246;28;20033;-71
2022/08/02 03:30:12;;;;;;;11.10;3.05;;;13.70;84.60;;;;;;4986905;28;20023;-69
2022/08/02 03:32:39;;;;;;;12.57;3.42;;;13.80;84.80;;;;;;4986116;28;20026;-69
2022/08/02 03:35:09;;;;;;;6.68;2.95;;;13.70;84.70;;;;;;4984841;28;20026;-69
2022/08/02 03:37:37;;;;;;;20.27;3.80;;;13.70;84.80;;;;;;4985535;28;20032;-70
2022/08/02 03:40:06;;;;;;;11.80;2.90;;;13.70;84.90;;;;;;4987884;28;20022;-73
2022/08/02 03:42:33;;;;;;;17.25;3.25;;;13.70;85.00;;;;;;4986781;28;20039;-72
2022/08/02 03:45:02;;;;;;;12.75;4.40;;;13.60;84.80;;;;;;4987491;28;20038;-70
2022/08/02 03:47:30;;;;;;;16.00;3.88;;;13.70;84.70;;;;;;4988772;28;20034;-69
2022/08/02 03:49:58;;;;;;;5.45;2.80;;;13.70;84.70;;;;;;4993531;28;20542;-70
2022/08/02 03:52:25;;;;;;;12.02;3.20;;;13.60;84.80;;;;;;4984121;28;20023;-70
2022/08/02 03:54:52;;;;;;;16.58;3.58;;;13.60;84.80;;;;;;4984970;28;20058;-70
2022/08/02 03:57:18;;;;;;;13.18;3.08;;;13.60;84.70;;;;;;4987052;28;20117;-69
2022/08/02 03:59:46;;;;;;;8.45;3.38;;;13.60;84.60;;;;;;4988494;28;20025;-69
2022/08/02 04:02:13;;;;;;;8.50;3.47;;;13.60;84.60;;;;;;4982490;28;20760;-72
2022/08/02 04:04:40;;;;;;;12.43;3.53;;;13.60;84.60;;;;;;4983942;28;20018;-67
2022/08/02 04:07:06;;;;;;;20.88;4.60;;;13.60;84.50;;;;;;4983902;28;20070;-69
2022/08/02 04:09:33;;;;;;;30.73;17.05;;;13.70;85.80;;;;;;4981569;28;20034;-72
2022/08/02 04:11:59;;;;;;;15.30;10.80;;;13.70;86.40;;;;;;4984360;28;20025;-69
2022/08/02 04:14:26;;;;;;;18.17;7.20;;;13.70;86.50;;;;;;4986681;28;20449;-72
2022/08/02 04:17:01;;;;;;;12.55;5.85;;;13.70;86.20;;;;;;4982345;28;20025;-72
2022/08/02 04:19:33;;;;;;;;;;;13.70;86.00;;;;;;4986574;28;20478;-70
2022/08/02 04:22:03;;;;;;;16.85;3.83;;;13.70;85.80;;;;;;4984342;28;20033;-71
2022/08/02 04:24:37;;;;;;;12.77;3.53;;;13.70;85.60;;;;;;4979869;28;20038;-70
2022/08/02 04:27:04;;;;;;;19.35;12.18;;;13.70;85.40;;;;;;4986596;28;20034;-69
2022/08/02 04:29:32;;;;;;;16.25;7.72;;;13.70;85.20;;;;;;4985017;28;20019;-74
2022/08/02 04:32:00;;;;;;;18.83;5.28;;;13.60;85.00;;;;;;4985846;28;20609;-73
2022/08/02 04:34:26;;;;;;;15.07;3.35;;;13.70;85.10;;;;;;4984132;28;20038;-69
2022/08/02 04:36:54;;;;;;;13.60;3.85;;;13.60;84.80;;;;;;4983818;28;20085;-72
2022/08/02 04:39:20;;;;;;;6.57;2.72;;;13.60;85.10;;;;;;4984328;28;20025;-74
2022/08/02 04:41:47;;;;;;;6.72;2.33;;;13.60;86.10;;;;;;4982167;28;20026;-70
2022/08/02 04:44:14;;;;;;;8.43;3.00;;;13.60;85.60;;;;;;4983989;28;20039;-70
2022/08/02 04:46:42;;;;;;;6.63;2.83;;;13.60;85.50;;;;;;4982456;28;20109;-69
2022/08/02 04:49:08;;;;;;;13.25;3.13;;;13.60;85.50;;;;;;4980890;28;20019;-75
2022/08/02 04:51:40;;;;;;;8.75;1.98;;;13.60;85.50;;;;;;4987219;28;20385;-74
2022/08/02 04:54:07;;;;;;;11.15;3.72;;;13.60;85.50;;;;;;4982619;28;20066;-68
2022/08/02 04:56:34;;;;;;;10.68;2.63;;;13.60;85.60;;;;;;4984213;28;20033;-67
2022/08/02 04:59:01;;;;;;;11.50;4.40;;;13.60;85.60;;;;;;4983944;28;20446;-70
2022/08/02 05:01:27;;;;;;;9.55;3.47;;;13.60;85.70;;;;;;4995384;28;20030;-68
2022/08/02 05:03:54;;;;;;;7.90;2.08;;;13.60;85.60;;;;;;4980110;28;20041;-70
2022/08/02 05:06:21;;;;;;;12.23;2.60;;;13.60;85.60;;;;;;4981860;28;20081;-70
2022/08/02 05:08:48;;;;;;;9.27;2.38;;;13.60;85.70;;;;;;4977106;28;20493;-71
2022/08/02 05:11:14;;;;;;;17.45;4.05;;;13.60;85.60;;;;;;4985426;28;20014;-70
2022/08/02 05:13:41;;;;;;;11.13;3.50;;;13.60;85.90;;;;;;4985576;28;20026;-70
2022/08/02 05:16:08;;;;;;;16.38;3.05;;;13.60;86.40;;;;;;4980219;28;20046;-72
2022/08/02 05:18:34;;;;;;;12.45;3.58;;;13.60;86.40;;;;;;4980048;28;20034;-71
2022/08/02 05:21:01;;;;;;;14.38;3.63;;;13.60;86.30;;;;;;4982077;28;20029;-70
2022/08/02 05:23:27;;;;;;;9.10;3.13;;;13.60;86.30;;;;;;4981980;28;20038;-69
2022/08/02 05:25:54;;;;;;;14.10;3.42;;;13.60;86.80;;;;;;4982852;28;20033;-69
2022/08/02 05:28:20;;;;;;;13.35;3.28;;;13.70;87.40;;;;;;4985098;28;20105;-70
2022/08/02 05:30:47;;;;;;;13.07;3.65;;;13.70;87.60;;;;;;4985975;28;20026;-70
2022/08/02 05:33:13;;;;;;;19.02;4.53;;;13.70;87.90;;;;;;4984664;28;20505;-69
2022/08/02 05:35:40;;;;;;;46.28;8.13;;;13.70;87.70;;;;;;4984095;28;20027;-74
2022/08/02 05:38:06;;;;;;;34.90;17.02;;;13.70;88.00;;;;;;4981669;28;20351;-71
2022/08/02 05:40:33;;;;;;;21.00;10.55;;;13.80;88.30;;;;;;4978614;28;20026;-70
2022/08/02 05:42:59;;;;;;;19.70;8.75;;;13.80;88.40;;;;;;4977726;28;20026;-71
2022/08/02 05:45:26;;;;;;;15.88;8.68;;;13.80;88.40;;;;;;4979457;28;20031;-71
2022/08/02 05:47:52;;;;;;;13.10;6.78;;;13.80;88.40;;;;;;4993970;28;21468;-72
2022/08/02 05:50:19;;;;;;;15.05;8.23;;;13.80;88.50;;;;;;4980010;28;20474;-70
2022/08/02 05:52:55;;;;;;;19.92;7.70;;;13.70;88.50;;;;;;4979066;28;20053;-74
2022/08/02 05:55:27;;;;;;;25.02;7.60;;;13.70;88.60;;;;;;4977659;28;20509;-74
2022/08/02 05:58:12;;;;;;;20.48;8.68;;;13.80;88.70;;;;;;4984601;28;20041;-75
2022/08/02 06:00:40;;;;;;;15.45;7.55;;;13.70;88.70;;;;;;4979709;28;20025;-72
2022/08/02 06:03:22;;;;;;;19.67;7.90;;;13.70;88.80;;;;;;4978619;28;20129;-73
2022/08/02 06:06:16;;;;;;;22.17;8.20;;;13.70;88.90;;;;;;4983185;28;20026;-73
2022/08/02 06:08:45;;;;;;;16.92;7.05;;;13.70;88.90;;;;;;4979068;28;20033;-74
2022/08/02 06:11:14;;;;;;;24.05;11.95;;;13.70;88.90;;;;;;4980035;28;20037;-71
2022/08/02 06:13:41;;;;;;;33.67;18.20;;;13.70;89.00;;;;;;4981041;28;20139;-73
2022/08/02 06:16:08;;;;;;;22.15;14.95;;;13.70;89.10;;;;;;4980491;28;20042;-71
2022/08/02 06:18:36;;;;;;;22.67;10.73;;;13.70;89.10;;;;;;4982949;28;20496;-73
2022/08/02 06:21:05;;;;;;;26.77;10.13;;;13.80;89.20;;;;;;4980235;28;20480;-73
2022/08/02 06:23:32;;;;;;;26.98;8.40;;;13.80;89.30;;;;;;4982128;28;20045;-72
2022/08/02 06:25:59;;;;;;;20.58;8.07;;;13.80;89.30;;;;;;4979017;28;20030;-73
2022/08/02 06:28:26;;;;;;;39.83;9.77;;;13.80;89.30;;;;;;4981331;28;20106;-72
2022/08/02 06:30:53;;;;;;;18.80;7.78;;;13.70;89.10;;;;;;4975850;28;20023;-74
2022/08/02 06:33:20;;;;;;;23.08;7.72;;;13.80;89.00;;;;;;4980456;28;20129;-71
2022/08/02 06:35:59;;;;;;;30.48;14.32;;;13.80;89.10;;;;;;4980817;28;20070;-75
2022/08/02 06:38:29;;;;;;;22.02;13.10;;;13.70;89.20;;;;;;4981168;28;20023;-72
2022/08/02 06:41:03;;;;;;;18.33;11.77;;;13.80;89.40;;;;;;4984824;28;20026;-75
2022/08/02 06:43:54;;;;;;;13.97;8.03;;;13.80;90.00;;;;;;4980837;28;21136;-71
2022/08/02 06:46:21;;;;;;;13.75;7.55;;;13.80;89.30;;;;;;4982784;28;20033;-74
2022/08/02 06:48:48;;;;;;;22.23;7.22;;;13.80;89.00;;;;;;4982318;28;20027;-72
2022/08/02 06:51:14;;;;;;;9.90;5.13;;;13.80;88.90;;;;;;4984202;28;20037;-76
2022/08/02 06:53:41;;;;;;;13.15;5.40;;;13.80;88.90;;;;;;4978787;28;20138;-76
2022/08/02 06:56:08;;;;;;;14.27;6.28;;;13.80;88.90;;;;;;4981067;28;20018;-73
2022/08/02 06:58:35;;;;;;;20.67;6.22;;;13.80;88.80;;;;;;4981770;28;20022;-74
2022/08/02 07:01:05;;;;;;;11.60;5.88;;;13.80;88.80;;;;;;4980990;28;20030;-71
2022/08/02 07:03:33;;;;;;;42.00;10.73;;;13.90;88.70;;;;;;4977145;28;20034;-71
2022/08/02 07:06:00;;;;;;;27.17;16.55;;;13.80;88.70;;;;;;4981984;28;20100;-72
2022/08/02 07:08:31;;;;;;;32.30;10.90;;;13.80;88.60;;;;;;4980334;28;20092;-71
2022/08/02 07:11:01;;;;;;;10.80;7.65;;;13.90;88.60;;;;;;4980405;28;20064;-70
2022/08/02 07:13:28;;;;;;;14.07;7.13;;;13.80;88.50;;;;;;4978777;28;20030;-69
2022/08/02 07:15:55;;;;;;;14.43;5.32;;;13.90;88.50;;;;;;4982753;28;20031;-73
2022/08/02 07:18:23;;;;;;;8.88;5.35;;;13.80;88.40;;;;;;4984949;28;20023;-72
2022/08/02 07:20:50;;;;;;;10.52;5.32;;;13.80;88.30;;;;;;4978876;28;20552;-70
2022/08/02 07:23:17;;;;;;;8.07;4.43;;;13.90;88.20;;;;;;4983045;28;20120;-76
2022/08/02 07:25:44;;;;;;;9.98;4.93;;;13.90;88.20;;;;;;4986100;28;20142;-70
2022/08/02 07:28:11;;;;;;;9.40;4.43;;;13.90;88.80;;;;;;4987710;28;20065;-73
2022/08/02 07:30:38;;;;;;;8.10;4.95;;;13.90;88.30;;;;;;4987576;28;20031;-71
2022/08/02 07:33:05;;;;;;;12.50;4.43;;;13.90;88.20;;;;;;4987055;28;20382;-75
2022/08/02 07:35:31;;;;;;;8.82;4.68;;;13.90;88.10;;;;;;4983902;28;20026;-71
2022/08/02 07:37:58;;;;;;;9.48;5.35;;;13.90;88.10;;;;;;4987372;28;20015;-73
2022/08/02 07:40:25;;;;;;;16.02;5.07;;;13.90;88.10;;;;;;4987972;28;20127;-73
2022/08/02 07:42:53;;;;;;;8.00;5.10;;;13.90;88.20;;;;;;4985582;28;20465;-74
2022/08/02 07:45:21;;;;;;;9.10;5.07;;;13.90;88.20;;;;;;4988428;28;20034;-73
2022/08/02 07:47:48;;;;;;;12.27;5.90;;;13.90;88.20;;;;;;4983248;28;20023;-76
2022/08/02 07:50:16;;;;;;;11.07;4.25;;;13.90;88.30;;;;;;4981830;28;20096;-74
2022/08/02 07:52:43;;;;;;;12.02;5.00;;;13.90;88.30;;;;;;4990615;28;20042;-74
2022/08/02 07:55:11;;;;;;;7.68;5.00;;;13.80;88.30;;;;;;4990298;28;20045;-71
2022/08/02 07:57:39;;;;;;;6.00;4.10;;;13.90;88.60;;;;;;4983111;28;20023;-73
2022/08/02 08:00:08;;;;;;;11.50;4.72;;;13.90;88.60;;;;;;4987278;28;20030;-75
2022/08/02 08:02:35;;;;;;;10.95;4.28;;;13.90;88.60;;;;;;4989376;28;20049;-70
2022/08/02 08:05:02;;;;;;;13.82;4.60;;;13.90;88.70;;;;;;4984877;28;20113;-71
2022/08/02 08:07:28;;;;;;;14.32;4.43;;;13.90;89.00;;;;;;4982118;28;20050;-75
2022/08/02 08:09:59;;;;;;;7.50;3.65;;;13.90;89.10;;;;;;4982110;28;20347;-75
2022/08/02 08:12:27;;;;;;;9.25;3.90;;;14.00;89.30;;;;;;4981738;28;20038;-71
2022/08/02 08:14:53;;;;;;;7.03;4.55;;;14.00;89.40;;;;;;4982474;28;20030;-76
2022/08/02 08:17:20;;;;;;;12.15;4.03;;;14.00;89.50;;;;;;4986961;28;20493;-74
2022/08/02 08:19:46;;;;;;;10.05;4.18;;;14.00;89.50;;;;;;4984794;28;20031;-73
2022/08/02 08:22:13;;;;;;;8.85;3.08;;;14.10;89.70;;;;;;4986696;28;20023;-76
2022/08/02 08:24:40;;;;;;;7.60;3.45;;;14.10;89.70;;;;;;4989512;28;20085;-72
2022/08/02 08:27:09;;;;;;;8.75;4.00;;;14.20;89.70;;;;;;4984136;28;20037;-76
2022/08/02 08:29:36;;;;;;;8.73;3.42;;;14.20;89.80;;;;;;4981857;28;20029;-70
2022/08/02 08:32:02;;;;;;;9.35;3.55;;;14.20;89.70;;;;;;4982057;28;20393;-75
2022/08/02 08:34:30;;;;;;;12.27;3.20;;;14.20;89.70;;;;;;4984756;28;20105;-72
2022/08/02 08:36:56;;;;;;;13.02;3.92;;;14.30;89.70;;;;;;4986921;28;20042;-74
2022/08/02 08:39:23;;;;;;;6.80;2.83;;;14.30;90.10;;;;;;4987810;28;20102;-74
2022/08/02 08:41:50;;;;;;;6.43;2.72;;;14.30;89.40;;;;;;4985158;28;20027;-76
2022/08/02 08:44:16;;;;;;;8.15;3.20;;;14.40;89.30;;;;;;4981531;28;20038;-76
2022/08/02 08:46:45;;;;;;;7.25;2.25;;;14.40;89.10;;;;;;4985577;28;20049;-73
2022/08/02 08:49:22;;;;;;;8.95;2.50;;;14.40;88.90;;;;;;4982466;28;20030;-71
2022/08/02 08:51:53;;;;;;;6.25;2.30;;;14.50;88.70;;;;;;4984114;28;20073;-74
2022/08/02 08:54:27;;;;;;;5.85;2.97;;;14.50;88.40;;;;;;4983310;28;20121;-70
2022/08/02 08:56:55;;;;;;;11.77;3.42;;;14.50;88.30;;;;;;4982274;28;20026;-74
2022/08/02 08:59:21;;;;;;;15.88;3.33;;;14.50;88.10;;;;;;4985091;28;20080;-70
2022/08/02 09:01:49;;;;;;;7.25;2.50;;;14.60;87.90;;;;;;4981234;28;20115;-75
2022/08/02 09:04:17;;;;;;;8.73;2.22;;;14.60;87.60;;;;;;4985534;28;20062;-71
2022/08/02 09:06:44;;;;;;;6.25;1.73;;;14.60;87.50;;;;;;4983340;28;20115;-75
2022/08/02 09:09:10;;;;;;;12.20;2.70;;;14.70;87.40;;;;;;4997455;28;20401;-71
2022/08/02 09:11:37;;;;;;;8.98;2.05;;;14.70;87.10;;;;;;4984911;28;20076;-72
2022/08/02 09:14:03;;;;;;;6.60;2.30;;;14.70;87.00;;;;;;4983536;28;20030;-73
2022/08/02 09:16:38;;;;;;;9.02;2.42;;;14.70;86.60;;;;;;4985953;28;20386;-71
2022/08/02 09:19:23;;;;;;;6.35;3.05;;;14.80;86.50;;;;;;4986163;28;20027;-72
2022/08/02 09:21:51;;;;;;;9.15;2.60;;;14.90;86.50;;;;;;4983528;28;20032;-72
2022/08/02 09:24:20;;;;;;;9.75;2.50;;;14.90;86.30;;;;;;4982442;28;20592;-74
2022/08/02 09:26:48;;;;;;;14.93;2.38;;;15.00;86.00;;;;;;4984134;28;20027;-71
2022/08/02 09:29:15;;;;;;;8.43;2.08;;;15.00;85.70;;;;;;4981272;28;20038;-74
2022/08/02 09:31:43;;;;;;;8.20;2.78;;;15.10;85.60;;;;;;4985414;28;20026;-74
2022/08/02 09:34:10;;;;;;;9.35;2.60;;;15.10;85.10;;;;;;4982602;28;20026;-72
2022/08/02 09:36:39;;;;;;;8.55;2.67;;;15.10;84.40;;;;;;4988222;28;20026;-76
2022/08/02 09:39:08;;;;;;;5.18;2.40;;;15.10;84.10;;;;;;4997676;28;20434;-77
2022/08/02 09:41:37;;;;;;;6.88;2.42;;;15.20;83.40;;;;;;4986357;28;20018;-75
2022/08/02 09:44:05;;;;;;;5.10;2.35;;;15.20;83.00;;;;;;4983382;28;20050;-71
2022/08/02 09:46:42;;;;;;;12.18;3.38;;;15.20;82.70;;;;;;4983080;28;20113;-75
2022/08/02 09:49:16;;;;;;;7.40;2.40;;;15.30;81.90;;;;;;4979513;28;20113;-71
2022/08/02 09:51:45;;;;;;;13.38;2.97;;;15.40;81.40;;;;;;4987058;28;20022;-71
2022/08/02 09:54:17;;;;;;;6.50;2.30;;;15.40;81.60;;;;;;4985100;28;20050;-73
2022/08/02 09:56:49;;;;;;;7.40;1.98;;;15.40;81.80;;;;;;4983666;28;20113;-70
2022/08/02 09:59:17;;;;;;;9.93;2.72;;;15.50;81.90;;;;;;4986094;28;20486;-71
2022/08/02 10:01:45;;;;;;;11.32;2.53;;;15.60;82.10;;;;;;4981291;28;20422;-71
2022/08/02 10:04:14;;;;;;;4.50;2.05;;;15.70;82.20;;;;;;4985495;28;20509;-71
2022/08/02 10:06:45;;;;;;;5.82;1.55;;;15.70;82.30;;;;;;4983971;28;20421;-71
2022/08/02 10:09:12;;;;;;;8.27;2.42;;;15.80;82.40;;;;;;4983625;28;20109;-71
2022/08/02 10:11:39;;;;;;;5.85;1.92;;;15.80;82.30;;;;;;4986049;28;20040;-70
2022/08/02 10:14:08;;;;;;;7.95;2.25;;;15.90;82.40;;;;;;4981817;28;20184;-71
2022/08/02 10:16:36;;;;;;;6.18;2.30;;;15.90;82.50;;;;;;4983868;28;20405;-71
2022/08/02 10:19:03;;;;;;;4.68;2.70;;;15.90;82.60;;;;;;4977112;28;20102;-71
2022/08/02 10:21:43;;;;;;;8.48;2.60;;;15.90;82.70;;;;;;4985206;28;20034;-70
2022/08/02 10:24:16;;;;;;;5.38;2.13;;;15.90;82.70;;;;;;4992559;28;20118;-72
2022/08/02 10:26:44;;;;;;;6.57;2.95;;;15.80;82.50;;;;;;4982661;28;20031;-71
2022/08/02 10:29:16;;;;;;;4.90;1.98;;;15.80;82.30;;;;;;4986505;28;20019;-71
2022/08/02 10:31:54;;;;;;;8.68;2.85;;;15.80;81.90;;;;;;4978778;28;20035;-70
2022/08/02 10:34:29;;;;;;;7.40;1.80;;;15.70;81.50;;;;;;4983711;28;20018;-71
2022/08/02 10:37:00;;;;;;;9.32;2.30;;;15.70;81.30;;;;;;4979316;28;20031;-71
2022/08/02 10:39:26;;;;;;;3.13;1.80;;;15.70;81.40;;;;;;4984096;28;20033;-73
2022/08/02 10:41:53;;;;;;;6.20;2.03;;;15.70;81.30;;;;;;4984962;28;20577;-75
2022/08/02 10:44:40;;;;;;;3.92;1.98;;;15.70;81.10;;;;;;4986138;28;20058;-72
2022/08/02 10:47:25;;;;;;;5.88;2.50;;;15.70;81.10;;;;;;4980666;28;20067;-76
2022/08/02 10:50:02;;;;;;;6.35;2.03;;;15.70;81.20;;;;;;4984291;28;20444;-72
2022/08/02 10:52:32;;;;;;;7.40;2.30;;;15.80;81.10;;;;;;4984591;28;20026;-70
2022/08/02 10:55:00;;;;;;;6.10;2.65;;;15.80;80.90;;;;;;4980644;28;20489;-70
2022/08/02 10:57:35;;;;;;;6.78;3.20;;;15.80;80.60;;;;;;4982698;28;20061;-71
2022/08/02 11:00:11;;;;;;;6.03;3.07;;;15.90;80.50;;;;;;4988093;28;20045;-71
2022/08/02 11:02:43;;;;;;;7.13;1.95;;;16.00;80.40;;;;;;4989282;28;20038;-70
2022/08/02 11:05:30;;;;;;;4.22;2.00;;;16.10;80.40;;;;;;4985098;28;20030;-71
2022/08/02 11:07:57;;;;;;;11.23;3.50;;;16.10;80.30;;;;;;4986804;28;20039;-72
2022/08/02 11:10:30;;;;;;;6.57;2.55;;;16.20;80.00;;;;;;4990631;28;20018;-70
2022/08/02 11:13:13;;;;;;;12.98;2.10;;;16.30;79.70;;;;;;4991700;28;20109;-72
2022/08/02 11:15:50;;;;;;;6.57;1.95;;;16.40;79.00;;;;;;4984047;28;20031;-72
2022/08/02 11:18:17;;;;;;;8.18;2.20;;;16.50;78.30;;;;;;4984470;28;20034;-72
2022/08/02 11:20:44;;;;;;;6.05;2.53;;;16.60;77.50;;;;;;4985033;28;20102;-71
2022/08/02 11:23:37;;;;;;;4.60;1.92;;;16.70;77.00;;;;;;4983274;28;20081;-72
2022/08/02 11:26:29;;;;;;;6.65;1.80;;;16.80;76.10;;;;;;4985985;28;20129;-74
2022/08/02 11:28:57;;;;;;;4.55;1.90;;;16.80;75.50;;;;;;4978434;28;20062;-71
2022/08/02 11:31:24;;;;;;;8.07;2.10;;;16.90;75.30;;;;;;4985124;28;20113;-71
2022/08/02 11:33:51;;;;;;;10.35;2.13;;;17.00;74.90;;;;;;4981807;28;20512;-72
2022/08/02 11:36:18;;;;;;;10.95;2.92;;;17.10;74.80;;;;;;4986777;28;20038;-70
2022/08/02 11:38:45;;;;;;;7.55;2.20;;;17.10;74.60;;;;;;4985570;28;20061;-70
2022/08/02 11:41:22;;;;;;;6.43;2.47;;;17.20;74.00;;;;;;4983195;28;20026;-73
2022/08/02 11:43:55;;;;;;;12.00;2.92;;;17.30;73.40;;;;;;4983414;28;20039;-77
2022/08/02 11:46:21;;;;;;;7.03;2.35;;;17.30;73.10;;;;;;4986367;28;20477;-74
2022/08/02 11:48:48;;;;;;;5.75;2.75;;;17.40;72.70;;;;;;4984487;28;20030;-74
2022/08/02 11:51:16;;;;;;;6.38;1.95;;;17.40;72.60;;;;;;4981120;28;20030;-74
2022/08/02 11:53:48;;;;;;;6.20;2.95;;;17.50;72.40;;;;;;4985917;28;20082;-73
2022/08/02 11:56:16;;;;;;;7.20;3.35;;;17.50;72.30;;;;;;4984097;28;20027;-73
2022/08/02 11:59:07;;;;;;;9.63;2.53;;;17.50;72.00;;;;;;4986686;28;20018;-73
2022/08/02 12:01:36;;;;;;;17.23;14.50;;;17.60;72.10;;;;;;4981745;28;20050;-73
2022/08/02 12:04:03;;;;;;;36.92;25.80;;;17.60;71.40;;;;;;4983083;28;20074;-72
2022/08/02 12:06:31;;;;;;;25.55;17.15;;;17.70;71.60;;;;;;4983429;28;20051;-72
2022/08/02 12:09:09;;;;;;;21.88;13.20;;;17.70;71.80;;;;;;4982926;28;20019;-72
2022/08/02 12:11:35;;;;;;;14.38;6.30;;;17.80;71.70;;;;;;4980245;28;20058;-73
2022/08/02 12:14:03;;;;;;;6.65;3.90;;;17.80;71.70;;;;;;4984507;28;20129;-73
2022/08/02 12:19:28;;;;;;;7.30;3.05;;;17.80;71.30;;;;;;4983900;28;20033;-73
2022/08/02 12:22:17;;;;;;;4.82;2.50;;;17.90;71.90;;;;;;4983581;28;20107;-72
2022/08/02 12:24:56;;;;;;;11.20;2.05;;;17.90;71.30;;;;;;4981708;28;20118;-73
2022/08/02 12:27:33;;;;;;;8.35;2.65;;;17.90;71.50;;;;;;4981139;28;20026;-74
2022/08/02 12:30:05;;;;;;;8.52;2.72;;;17.90;71.60;;;;;;4984337;28;20486;-73
2022/08/02 12:32:32;;;;;;;6.47;2.17;;;18.00;72.40;;;;;;4982899;28;20041;-72
2022/08/02 12:35:12;;;;;;;8.07;3.38;;;18.00;72.30;;;;;;4980338;28;20054;-71
2022/08/02 12:37:44;;;;;;;4.28;1.45;;;18.10;72.20;;;;;;4980433;28;20054;-71
2022/08/02 12:40:22;;;;;;;8.88;4.75;;;18.10;72.20;;;;;;4981347;28;20041;-72
2022/08/02 12:42:55;;;;;;;27.75;11.65;;;18.10;72.00;;;;;;4987714;28;20018;-71
2022/08/02 12:45:22;;;;;;;15.20;8.18;;;18.10;72.30;;;;;;4978406;28;20023;-73
2022/08/02 12:47:52;;;;;;;10.48;5.30;;;18.10;72.50;;;;;;4983898;28;20026;-72
2022/08/02 12:50:23;;;;;;;8.50;3.60;;;18.20;72.50;;;;;;4983093;28;20540;-72
2022/08/02 12:52:50;;;;;;;9.20;2.50;;;18.20;72.20;;;;;;4981184;28;20022;-71
2022/08/02 12:55:25;;;;;;;8.48;3.22;;;18.20;72.10;;;;;;4982884;28;20026;-72
2022/08/02 12:57:55;;;;;;;6.60;2.28;;;18.20;72.70;;;;;;4983868;28;20273;-71